Time;durP1;ratioP1;P1;durP2;ratioP2;P2;SDS_P1;SDS_P2;PMS_P1;PMS_P2;Temp;Humidity;BMP_temperature;BMP_pressure;BME280_temperature;BME280_humidity;BME280_pressure;Samples;Min_cycle;Max_cycle;Signal;HPM_P1;HPM_P2
2022/05/28 00:06:18;;;;;;;;;;;23.40;29.70;;;;;;21165318;28;19923;-57
2022/05/28 00:16:20;;;;;;;;;;;23.20;30.20;;;;;;21163851;28;19945;-59
2022/05/28 00:26:23;;;;;;;;;;;23.20;30.60;;;;;;21164124;28;20460;-57
2022/05/28 00:36:24;;;;;;;;;;;23.20;31.30;;;;;;21163429;28;19931;-59
2022/05/28 00:46:27;;;;;;;;;;;23.10;31.90;;;;;;21162144;28;19931;-57
2022/05/28 00:56:28;;;;;;;;;;;23.00;32.60;;;;;;21162499;28;19924;-58
2022/05/28 01:06:56;;;;;;;;;;;22.90;33.20;;;;;;21162258;28;19930;-59
2022/05/28 01:17:03;;;;;;;;;;;22.70;34.00;;;;;;21159339;28;19928;-58
2022/05/28 01:27:09;;;;;;;;;;;22.70;34.40;;;;;;21163355;28;19988;-59
2022/05/28 01:37:15;;;;;;;;;;;22.60;34.90;;;;;;21178629;28;20014;-60
2022/05/28 01:47:17;;;;;;;;;;;22.50;35.00;;;;;;21174922;28;20299;-57
2022/05/28 01:57:21;;;;;;;;;;;22.40;35.40;;;;;;21177881;28;20261;-59
2022/05/28 02:07:24;;;;;;;;;;;22.20;35.90;;;;;;21175525;28;19923;-58
2022/05/28 02:17:43;;;;;;;;;;;22.20;36.60;;;;;;21173479;28;19928;-57
2022/05/28 02:27:47;;;;;;;;;;;22.10;36.90;;;;;;21172979;28;19976;-57
2022/05/28 02:37:50;;;;;;;;;;;21.90;37.30;;;;;;21170064;28;19924;-57
2022/05/28 02:47:52;;;;;;;;;;;21.80;37.60;;;;;;21170871;28;19924;-57
2022/05/28 02:57:55;;;;;;;;;;;21.70;37.80;;;;;;21169359;28;20049;-58
2022/05/28 03:07:58;;;;;;;;;;;21.60;38.20;;;;;;21201338;27;19928;-57
2022/05/28 03:18:00;;;;;;;;;;;21.50;38.80;;;;;;21167766;28;20014;-58
2022/05/28 03:28:02;;;;;;;;;;;21.40;39.20;;;;;;21166065;28;19947;-57
2022/05/28 03:38:04;;;;;;;;;;;21.20;39.30;;;;;;21166848;28;19931;-58
2022/05/28 03:48:08;;;;;;;;;;;21.10;39.50;;;;;;21164106;28;19924;-57
2022/05/28 03:58:10;;;;;;;;;;;21.00;39.60;;;;;;21164204;28;19928;-58
2022/05/28 04:08:31;;;;;;;;;;;20.90;39.80;;;;;;21164031;28;19928;-57
2022/05/28 04:18:52;;;;;;;;;;;20.80;40.20;;;;;;21164092;28;20394;-58
2022/05/28 04:29:05;;;;;;;;;;;20.70;40.50;;;;;;21163602;28;20371;-57
2022/05/28 04:39:11;;;;;;;;;;;20.60;41.00;;;;;;21163941;28;19924;-57
2022/05/28 04:49:14;;;;;;;;;;;20.50;41.40;;;;;;21160803;28;19924;-58
2022/05/28 04:59:18;;;;;;;;;;;20.40;41.90;;;;;;21163187;28;19930;-57
2022/05/28 05:09:20;;;;;;;;;;;20.20;42.30;;;;;;21172499;28;20034;-58
2022/05/28 05:19:22;;;;;;;;;;;20.10;42.80;;;;;;21179054;28;20007;-59
2022/05/28 05:29:25;;;;;;;;;;;20.10;42.90;;;;;;21178131;28;19934;-56
2022/05/28 05:39:27;;;;;;;;;;;20.20;42.70;;;;;;21177046;28;19943;-58
2022/05/28 05:49:29;;;;;;;;;;;20.20;42.60;;;;;;21176740;28;19997;-59
2022/05/28 05:59:32;;;;;;;;;;;20.30;42.30;;;;;;21175574;28;20324;-58
2022/05/28 06:09:37;;;;;;;;;;;20.40;42.40;;;;;;21175725;27;19994;-57
2022/05/28 06:19:40;;;;;;;;;;;20.40;42.50;;;;;;21173003;28;19988;-59
2022/05/28 06:29:42;;;;;;;;;;;20.50;42.20;;;;;;21174220;28;19923;-57
2022/05/28 06:39:44;;;;;;;;;;;20.70;42.00;;;;;;21173498;28;19962;-58
2022/05/28 06:51:01;;;;;;;;;;;20.90;41.90;;;;;;21170446;28;20387;-58
2022/05/28 07:00:08;;;;;;;;;;;21.80;40.80;;;;;;21169907;28;20315;-59
2022/05/28 07:10:11;;;;;;;;;;;22.70;39.60;;;;;;21170025;28;20019;-58
2022/05/28 07:20:13;;;;;;;;;;;23.40;38.70;;;;;;21168471;28;19951;-59
2022/05/28 07:30:15;;;;;;;;;;;24.00;38.10;;;;;;21168002;28;19949;-59
2022/05/28 07:40:17;;;;;;;;;;;24.60;37.40;;;;;;21167149;28;19924;-60
2022/05/28 07:50:20;;;;;;;;;;;25.00;36.90;;;;;;21165873;28;20358;-58
2022/05/28 08:00:24;;;;;;;;;;;25.30;36.50;;;;;;21165097;27;19924;-58
2022/05/28 08:10:25;;;;;;;;;;;26.40;35.50;;;;;;21164869;28;19924;-59
2022/05/28 08:30:48;;;;;;;;;;;26.20;35.50;;;;;;21165223;28;19931;-58
2022/05/28 08:41:08;;;;;;;;;;;26.70;34.60;;;;;;21169042;28;19924;-59
2022/05/28 08:51:25;;;;;;;;;;;26.90;34.40;;;;;;21165652;28;19924;-58
2022/05/28 09:01:28;;;;;;;;;;;26.90;34.20;;;;;;21161231;28;19924;-58
2022/05/28 09:11:38;;;;;;;;;;;27.30;33.50;;;;;;21160418;28;19927;-57
2022/05/28 09:21:40;;;;;;;;;;;27.20;33.30;;;;;;21156897;28;19923;-60
2022/05/28 09:31:52;;;;;;;;;;;27.10;33.80;;;;;;21159905;28;19930;-60
2022/05/28 09:42:06;;;;;;;;;;;27.30;33.70;;;;;;21160771;28;19928;-64
2022/05/28 09:52:09;;;;;;;;;;;27.30;33.70;;;;;;21163434;28;19927;-70
2022/05/28 10:02:15;;;;;;;;;;;27.60;32.80;;;;;;21175078;28;19924;-66
2022/05/28 10:12:25;;;;;;;;;;;27.60;33.00;;;;;;21177323;28;19924;-61
2022/05/28 10:22:26;;;;;;;;;;;;;;;;;;21171757;28;19924;-62
2022/05/28 10:32:28;;;;;;;;;;;28.90;30.80;;;;;;21173446;28;19931;-65
2022/05/28 10:42:29;;;;;;;;;;;28.50;30.20;;;;;;21172336;28;20023;-61
2022/05/28 10:52:52;;;;;;;;;;;28.90;30.20;;;;;;21170039;28;20034;-70
2022/05/28 11:02:56;;;;;;;;;;;28.50;31.40;;;;;;21167873;28;19932;-59
2022/05/28 11:13:04;;;;;;;;;;;28.20;32.30;;;;;;21169773;28;19924;-60
2022/05/28 11:23:05;;;;;;;;;;;28.30;31.80;;;;;;21168966;28;19924;-60
2022/05/28 11:33:07;;;;;;;;;;;;;;;;;;21169425;28;20283;-60
2022/05/28 11:43:15;;;;;;;;;;;29.10;29.10;;;;;;21168248;28;19993;-60
2022/05/28 11:53:16;;;;;;;;;;;;;;;;;;21165860;28;19924;-60
2022/05/28 12:03:22;;;;;;;;;;;29.60;27.40;;;;;;21164996;28;19924;-60
2022/05/28 12:13:30;;;;;;;;;;;30.80;26.70;;;;;;21162731;28;19928;-62
2022/05/28 12:23:31;;;;;;;;;;;30.20;27.10;;;;;;21163526;28;19924;-60
2022/05/28 12:33:34;;;;;;;;;;;30.40;26.70;;;;;;21163178;28;20284;-60
2022/05/28 12:43:37;;;;;;;;;;;30.50;25.40;;;;;;21161341;28;19923;-59
2022/05/28 12:53:51;;;;;;;;;;;30.80;24.30;;;;;;21161769;28;20260;-61
2022/05/28 13:03:53;;;;;;;;;;;;;;;;;;21161070;28;20006;-58
2022/05/28 13:13:55;;;;;;;;;;;;;;;;;;21160760;28;20355;-61
2022/05/28 13:24:06;;;;;;;;;;;32.10;22.10;;;;;;21160971;28;19924;-60
2022/05/28 13:34:27;;;;;;;;;;;31.60;22.20;;;;;;21176305;28;19924;-60
2022/05/28 13:44:30;;;;;;;;;;;31.50;22.80;;;;;;21177382;28;20411;-59
2022/05/28 13:54:31;;;;;;;;;;;31.60;22.40;;;;;;21174846;27;19931;-61
2022/05/28 14:04:40;;;;;;;;;;;31.50;21.60;;;;;;21173985;28;19977;-60
2022/05/28 14:14:44;;;;;;;;;;;31.30;22.50;;;;;;21172522;28;20305;-59
2022/05/28 14:24:46;;;;;;;;;;;31.50;22.60;;;;;;21172613;28;20013;-59
2022/05/28 14:34:48;;;;;;;;;;;31.70;22.50;;;;;;21172550;28;19931;-58
2022/05/28 14:44:49;;;;;;;;;;;32.00;21.20;;;;;;21169883;28;19924;-59
2022/05/28 14:54:55;;;;;;;;;;;31.70;21.40;;;;;;21170600;28;19923;-60
2022/05/28 15:05:23;;;;;;;;;;;31.60;21.90;;;;;;21168883;28;19976;-61
2022/05/28 15:15:24;;;;;;;;;;;31.90;21.40;;;;;;21169766;28;19981;-60
2022/05/28 15:25:28;;;;;;;;;;;32.10;21.10;;;;;;21170889;28;20243;-60
2022/05/28 15:45:52;;;;;;;;;;;32.00;21.00;;;;;;21167670;28;19989;-60
2022/05/28 15:55:54;;;;;;;;;;;32.20;20.70;;;;;;21166952;28;20368;-61
2022/05/28 16:05:57;;;;;;;;;;;32.70;19.50;;;;;;21165362;28;19924;-70
2022/05/28 16:15:59;;;;;;;;;;;32.00;21.10;;;;;;21163141;28;19923;-69
2022/05/28 16:26:04;;;;;;;;;;;31.60;20.80;;;;;;21162314;28;20119;-62
2022/05/28 16:36:06;;;;;;;;;;;31.40;20.80;;;;;;21129676;28;19931;-62
2022/05/28 16:46:08;;;;;;;;;;;31.90;19.70;;;;;;21080883;28;19924;-65
2022/05/28 16:56:13;;;;;;;;;;;31.80;19.50;;;;;;21152598;28;19924;-60
2022/05/28 17:06:15;;;;;;;;;;;31.80;19.70;;;;;;21173678;28;20395;-61
2022/05/28 17:16:17;;;;;;;;;;;31.60;20.00;;;;;;21179267;28;19968;-62
2022/05/28 17:26:19;;;;;;;;;;;31.50;20.30;;;;;;21178475;28;19923;-61
2022/05/28 17:36:22;;;;;;;;;;;31.40;20.00;;;;;;21178306;28;19971;-60
2022/05/28 17:46:23;;;;;;;;;;;31.30;20.40;;;;;;21176504;28;20344;-61
2022/05/28 17:56:26;;;;;;;;;;;31.30;20.90;;;;;;21174308;28;19930;-60
2022/05/28 18:06:27;;;;;;;;;;;31.20;20.90;;;;;;21174390;28;19927;-62
2022/05/28 18:16:31;;;;;;;;;;;31.00;21.10;;;;;;21172704;28;19923;-61
2022/05/28 18:26:35;;;;;;;;;;;30.90;21.60;;;;;;21173366;28;19930;-61
2022/05/28 18:36:38;;;;;;;;;;;;;;;;;;21172252;28;19923;-60
2022/05/28 18:46:40;;;;;;;;;;;30.60;22.10;;;;;;21171131;28;20291;-61
2022/05/28 18:56:41;;;;;;;;;;;;;;;;;;21172108;28;19924;-62
2022/05/28 19:06:47;;;;;;;;;;;31.10;22.00;;;;;;21171466;28;20249;-61
2022/05/28 19:16:51;;;;;;;;;;;30.30;22.80;;;;;;21168326;28;19969;-62
2022/05/28 19:37:13;;;;;;;;;;;29.40;23.60;;;;;;21166747;28;19976;-60
2022/05/28 19:47:18;;;;;;;;;;;29.10;24.00;;;;;;21166732;28;19928;-59
2022/05/28 19:57:19;;;;;;;;;;;28.80;24.20;;;;;;21164962;28;19935;-61
2022/05/28 20:07:21;;;;;;;;;;;28.60;24.50;;;;;;21164283;28;20025;-60
2022/05/28 20:17:23;;;;;;;;;;;28.40;24.50;;;;;;21146720;28;19935;-60
2022/05/28 20:27:25;;;;;;;;;;;28.20;24.60;;;;;;21164421;28;19931;-61
2022/05/28 20:37:27;;;;;;;;;;;28.10;24.80;;;;;;21143497;28;20308;-59
2022/05/28 20:47:28;;;;;;;;;;;27.90;25.20;;;;;;21144357;28;20401;-61
2022/05/28 20:57:30;;;;;;;;;;;27.70;25.30;;;;;;21161589;28;20368;-59
2022/05/28 21:07:31;;;;;;;;;;;27.70;25.50;;;;;;21162131;28;19923;-61
2022/05/28 21:17:34;;;;;;;;;;;27.60;25.90;;;;;;21161931;28;19966;-60
2022/05/28 21:37:59;;;;;;;;;;;27.20;27.10;;;;;;21160214;28;19928;-60
2022/05/28 21:48:00;;;;;;;;;;;27.00;27.50;;;;;;21164625;28;19931;-60
2022/05/28 21:58:02;;;;;;;;;;;26.90;27.90;;;;;;21175131;28;19924;-60
2022/05/28 22:08:04;;;;;;;;;;;;;;;;;;21174711;28;19963;-59
2022/05/28 22:18:06;;;;;;;;;;;26.30;28.60;;;;;;21129084;28;19924;-60
2022/05/28 22:28:08;;;;;;;;;;;;;;;;;;21089718;28;19931;-61
2022/05/28 22:38:13;;;;;;;;;;;;;;;;;;21087136;28;19924;-62
2022/05/28 22:48:15;;;;;;;;;;;;;;;;;;21087034;28;19928;-60
2022/05/28 22:58:17;;;;;;;;;;;;;;;;;;21085216;28;19930;-59
2022/05/28 23:08:19;;;;;;;;;;;;;;;;;;21086666;28;19954;-61
2022/05/28 23:18:20;;;;;;;;;;;;;;;;;;21085748;28;19924;-60
2022/05/28 23:28:27;;;;;;;;;;;;;;;;;;21084015;28;19924;-60
2022/05/28 23:38:28;;;;;;;;;;;25.90;30.70;;;;;;21083015;28;19971;-60
2022/05/28 23:48:30;;;;;;;;;;;24.70;32.50;;;;;;21083621;28;20392;-61
2022/05/28 23:58:32;;;;;;;;;;;24.30;33.20;;;;;;21080877;28;19932;-58
